Time;durP1;ratioP1;P1;durP2;ratioP2;P2;SDS_P1;SDS_P2;PMS_P1;PMS_P2;Temp;Humidity;BMP_temperature;BMP_pressure;BME280_temperature;BME280_humidity;BME280_pressure;Samples;Min_cycle;Max_cycle;Signal;HPM_P1;HPM_P2
2021/12/31 00:00:28;;;;;;;16.38;2.35;;;;;;;;;;5077619;28;20048;-77
2021/12/31 00:02:54;;;;;;;11.43;2.33;;;;;;;;;;5075684;28;20040;-76
2021/12/31 00:05:20;;;;;;;7.10;1.90;;;;;;;;;;5098181;28;20050;-76
2021/12/31 00:07:46;;;;;;;9.25;2.30;;;;;;;;;;5106976;28;20039;-78
2021/12/31 00:10:13;;;;;;;11.05;2.95;;;;;;;;;;5108362;27;20414;-74
2021/12/31 00:12:41;;;;;;;9.73;2.40;;;;;;;;;;5110447;28;20047;-77
2021/12/31 00:15:07;;;;;;;12.88;2.78;;;;;;;;;;5111164;28;20035;-74
2021/12/31 00:17:33;;;;;;;11.80;2.60;;;;;;;;;;5093817;28;20066;-75
2021/12/31 00:20:06;;;;;;;11.20;2.30;;;;;;;;;;5093644;28;20039;-75
2021/12/31 00:25:18;;;;;;;10.80;2.65;;;;;;;;;;5106556;28;20072;-74
2021/12/31 00:27:44;;;;;;;9.02;2.00;;;;;;;;;;5090305;28;20047;-76
2021/12/31 00:30:11;;;;;;;8.95;2.33;;;;;;;;;;5090328;28;20044;-75
2021/12/31 00:32:37;;;;;;;11.32;2.55;;;;;;;;;;5090276;28;20059;-75
2021/12/31 00:35:03;;;;;;;5.00;2.05;;;;;;;;;;5088668;28;20047;-75
2021/12/31 00:37:30;;;;;;;9.88;2.00;;;;;;;;;;5072879;28;20043;-75
2021/12/31 00:39:56;;;;;;;6.70;2.75;;;;;;;;;;5073129;28;20040;-78
2021/12/31 00:42:22;;;;;;;8.05;2.67;;;;;;;;;;5089818;28;20101;-76
2021/12/31 00:44:48;;;;;;;7.72;2.47;;;;;;;;;;5090131;28;20403;-74
2021/12/31 00:47:14;;;;;;;6.72;1.80;;;;;;;;;;5089720;28;20046;-75
2021/12/31 00:49:40;;;;;;;5.15;1.58;;;;;;;;;;5072536;28;20139;-77
2021/12/31 00:52:07;;;;;;;9.52;2.28;;;;;;;;;;5073416;28;20083;-75
2021/12/31 00:54:33;;;;;;;7.15;1.55;;;;;;;;;;5089598;28;20090;-77
2021/12/31 00:57:03;;;;;;;9.40;2.65;;;;;;;;;;5073016;28;20067;-76
2021/12/31 00:59:30;;;;;;;12.57;2.70;;;;;;;;;;5090084;28;20048;-76
2021/12/31 01:01:56;;;;;;;10.05;2.38;;;;;;;;;;5089532;28;20048;-75
2021/12/31 01:04:22;;;;;;;15.55;2.55;;;;;;;;;;5085485;28;20086;-74
2021/12/31 01:06:48;;;;;;;12.73;3.05;;;;;;;;;;5078618;28;20040;-73
2021/12/31 01:09:14;;;;;;;7.47;2.00;;;;;;;;;;5080944;28;20525;-75
2021/12/31 01:11:42;;;;;;;7.68;2.13;;;;;;;;;;5087866;28;20048;-74
2021/12/31 01:14:21;;;;;;;8.25;2.60;;;;;;;;;;5086868;28;20044;-77
2021/12/31 01:16:50;;;;;;;15.25;3.90;;;;;;;;;;5069556;28;20078;-76
2021/12/31 01:21:42;;;;;;;9.90;3.05;;;;;;;;;;5094858;28;20047;-76
2021/12/31 01:24:11;;;;;;;9.43;2.20;;;;;;;;;;5092932;28;20096;-77
2021/12/31 01:26:37;;;;;;;9.88;3.10;;;;;;;;;;5073862;28;20553;-75
2021/12/31 01:29:03;;;;;;;9.32;2.70;;;;;;;;;;5072471;28;20068;-74
2021/12/31 01:31:29;;;;;;;8.73;2.70;;;;;;;;;;5072568;28;20066;-73
2021/12/31 01:33:55;;;;;;;11.23;2.80;;;;;;;;;;5074050;28;20087;-74
2021/12/31 01:36:21;;;;;;;14.20;3.05;;;;;;;;;;5112016;28;20044;-75
2021/12/31 01:38:47;;;;;;;10.20;2.83;;;;;;;;;;5112355;28;20255;-73
2021/12/31 01:41:13;;;;;;;8.32;2.40;;;;;;;;;;5112621;28;20036;-75
2021/12/31 01:43:39;;;;;;;13.02;3.03;;;;;;;;;;5111715;28;20052;-75
2021/12/31 01:46:11;;;;;;;9.02;2.90;;;;;;;;;;5111838;28;20044;-76
2021/12/31 01:48:59;;;;;;;10.80;2.85;;;;;;;;;;5095338;28;20499;-76
2021/12/31 01:51:24;;;;;;;9.95;3.13;;;;;;;;;;5112137;28;20039;-75
2021/12/31 01:53:50;;;;;;;12.45;3.15;;;;;;;;;;5112048;28;20396;-78
2021/12/31 01:56:17;;;;;;;11.45;2.90;;;;;;;;;;5111913;28;20036;-77
2021/12/31 01:58:43;;;;;;;15.63;2.85;;;;;;;;;;5095196;28;20035;-74
2021/12/31 02:01:12;;;;;;;7.35;2.80;;;;;;;;;;5100073;28;20048;-75
2021/12/31 02:03:38;;;;;;;17.02;3.97;;;;;;;;;;5091827;28;20063;-73
2021/12/31 02:06:05;;;;;;;12.05;2.65;;;;;;;;;;5091866;28;20035;-74
2021/12/31 02:08:31;;;;;;;12.07;3.80;;;;;;;;;;5086208;28;20528;-77
2021/12/31 02:10:57;;;;;;;13.68;3.55;;;;;;;;;;5071052;28;20052;-75
2021/12/31 02:13:23;;;;;;;10.90;4.03;;;;;;;;;;5070958;28;20547;-74
2021/12/31 02:15:50;;;;;;;10.55;2.47;;;;;;;;;;5071409;28;20044;-74
2021/12/31 02:18:16;;;;;;;12.20;2.55;;;;;;;;;;5071275;28;20114;-75
2021/12/31 02:20:47;;;;;;;8.70;2.47;;;;;;;;;;5070853;28;20407;-74
2021/12/31 02:23:25;;;;;;;12.30;3.17;;;;;;;;;;5074571;28;20044;-73
2021/12/31 02:25:51;;;;;;;4.82;2.22;;;;;;;;;;5091147;28;20127;-76
2021/12/31 02:28:20;;;;;;;7.75;2.38;;;;;;;;;;5091258;28;20502;-74
2021/12/31 02:30:47;;;;;;;9.60;2.22;;;;;;;;;;5091196;28;20036;-76
2021/12/31 02:33:13;;;;;;;5.40;2.28;;;;;;;;;;5090807;28;20039;-76
2021/12/31 02:35:39;;;;;;;9.13;3.05;;;;;;;;;;5091068;28;20494;-74
2021/12/31 02:38:06;;;;;;;6.03;2.30;;;;;;;;;;5090892;28;20036;-76
2021/12/31 02:40:33;;;;;;;9.13;3.47;;;;;;;;;;5091187;28;20086;-74
2021/12/31 02:42:59;;;;;;;8.55;2.40;;;;;;;;;;5090624;28;20399;-75
2021/12/31 02:45:30;;;;;;;4.32;2.58;;;;;;;;;;5090837;28;20047;-73
2021/12/31 02:47:57;;;;;;;8.13;2.72;;;;;;;;;;5090072;28;20047;-76
2021/12/31 02:50:33;;;;;;;6.88;2.58;;;;;;;;;;5070396;28;20577;-76
2021/12/31 02:53:00;;;;;;;10.00;2.90;;;;;;;;;;5070629;28;20063;-75
2021/12/31 02:55:27;;;;;;;8.63;2.65;;;;;;;;;;5070544;28;20075;-75
2021/12/31 02:57:53;;;;;;;10.82;2.80;;;;;;;;;;5070497;28;20496;-74
2021/12/31 03:00:19;;;;;;;10.32;2.95;;;;;;;;;;5070434;28;20037;-76
2021/12/31 03:02:45;;;;;;;4.53;2.60;;;;;;;;;;5070280;28;20040;-76
2021/12/31 03:05:11;;;;;;;5.78;2.47;;;;;;;;;;5070374;28;20086;-76
2021/12/31 03:07:38;;;;;;;3.92;2.10;;;;;;;;;;5070127;28;20036;-75
2021/12/31 03:10:05;;;;;;;5.07;2.30;;;;;;;;;;5070087;28;20085;-73
2021/12/31 03:12:31;;;;;;;5.82;2.40;;;;;;;;;;5070605;28;20473;-75
2021/12/31 03:14:57;;;;;;;7.20;3.30;;;;;;;;;;5069970;28;20104;-75
2021/12/31 03:17:25;;;;;;;6.57;2.78;;;;;;;;;;5069857;28;20032;-75
2021/12/31 03:19:59;;;;;;;8.32;3.10;;;;;;;;;;5070168;28;20040;-76
2021/12/31 03:22:25;;;;;;;8.27;3.72;;;;;;;;;;5069959;28;20055;-74
2021/12/31 03:24:51;;;;;;;7.65;3.65;;;;;;;;;;5069983;28;20420;-75
2021/12/31 03:27:17;;;;;;;6.68;3.40;;;;;;;;;;5069834;28;20044;-75
2021/12/31 03:29:44;;;;;;;8.68;3.58;;;;;;;;;;5069847;28;20132;-74
2021/12/31 03:32:10;;;;;;;6.45;3.45;;;;;;;;;;5069730;28;20105;-74
2021/12/31 03:34:36;;;;;;;6.05;3.17;;;;;;;;;;5053313;28;20053;-75
2021/12/31 03:37:02;;;;;;;8.40;3.75;;;;;;;;;;5070163;28;20086;-75
2021/12/31 03:39:28;;;;;;;6.50;3.85;;;;;;;;;;5070205;28;20042;-76
2021/12/31 03:41:54;;;;;;;6.13;3.55;;;;;;;;;;5070045;28;20044;-74
2021/12/31 03:44:20;;;;;;;10.15;4.38;;;;;;;;;;5070179;28;20040;-74
2021/12/31 03:46:46;;;;;;;11.05;4.50;;;;;;;;;;5073871;28;20059;-73
2021/12/31 03:49:12;;;;;;;7.85;3.67;;;;;;;;;;5074186;28;20129;-75
2021/12/31 03:51:38;;;;;;;7.25;3.60;;;;;;;;;;5074033;28;20036;-77
2021/12/31 03:54:04;;;;;;;9.82;3.55;;;;;;;;;;5074100;28;20485;-76
2021/12/31 03:56:32;;;;;;;5.70;3.20;;;;;;;;;;5074170;28;20145;-74
2021/12/31 03:58:59;;;;;;;6.85;4.03;;;;;;;;;;5074307;28;20047;-76
2021/12/31 04:01:26;;;;;;;6.03;3.58;;;;;;;;;;5074263;28;20036;-78
2021/12/31 04:03:52;;;;;;;7.70;3.08;;;;;;;;;;5090394;28;20040;-77
2021/12/31 04:06:18;;;;;;;6.70;3.38;;;;;;;;;;5077351;28;20047;-73
2021/12/31 04:08:44;;;;;;;5.53;2.67;;;;;;;;;;5093503;28;20066;-75
2021/12/31 04:11:13;;;;;;;8.80;2.60;;;;;;;;;;5093660;28;20484;-77
2021/12/31 04:13:39;;;;;;;5.22;2.47;;;;;;;;;;5094050;28;20044;-75
2021/12/31 04:16:05;;;;;;;3.97;2.70;;;;;;;;;;5093783;28;20071;-74
2021/12/31 04:18:31;;;;;;;5.22;2.50;;;;;;;;;;5093842;28;20032;-75
2021/12/31 04:20:58;;;;;;;5.45;2.58;;;;;;;;;;5093895;28;20032;-75
2021/12/31 04:25:53;;;;;;;8.88;3.03;;;;;;;;;;5110837;28;20460;-76
2021/12/31 04:28:19;;;;;;;5.03;2.53;;;;;;;;;;5093836;28;20082;-76
2021/12/31 04:30:45;;;;;;;7.18;2.85;;;;;;;;;;5093548;28;20040;-74
2021/12/31 04:33:11;;;;;;;6.05;2.17;;;;;;;;;;5093216;28;20376;-73
2021/12/31 04:35:37;;;;;;;4.88;2.97;;;;;;;;;;5094825;28;20039;-74
2021/12/31 04:38:03;;;;;;;4.53;2.35;;;;;;;;;;5097203;28;20032;-74
2021/12/31 04:40:28;;;;;;;7.72;2.83;;;;;;;;;;5114007;28;20172;-74
2021/12/31 04:42:54;;;;;;;5.82;2.40;;;;;;;;;;5096657;28;20039;-76
2021/12/31 04:45:20;;;;;;;5.63;3.38;;;;;;;;;;5114255;28;20521;-73
2021/12/31 04:47:47;;;;;;;3.97;2.35;;;;;;;;;;5113873;28;20048;-76
2021/12/31 04:50:13;;;;;;;8.93;2.83;;;;;;;;;;5113989;28;20509;-76
2021/12/31 04:52:39;;;;;;;8.23;2.70;;;;;;;;;;5096242;28;20039;-75
2021/12/31 04:55:06;;;;;;;7.20;2.70;;;;;;;;;;5113618;28;20056;-73
2021/12/31 04:57:32;;;;;;;6.38;3.35;;;;;;;;;;5096432;28;20071;-75
2021/12/31 04:59:58;;;;;;;8.80;4.45;;;;;;;;;;5096154;28;20074;-74
2021/12/31 05:02:24;;;;;;;7.22;3.92;;;;;;;;;;5096307;28;20032;-73
2021/12/31 05:04:50;;;;;;;7.55;4.60;;;;;;;;;;5085636;28;20123;-75
2021/12/31 05:07:16;;;;;;;9.77;4.75;;;;;;;;;;5076382;28;20411;-76
2021/12/31 05:09:42;;;;;;;9.07;3.97;;;;;;;;;;5075868;28;20059;-73
2021/12/31 05:12:14;;;;;;;7.55;4.55;;;;;;;;;;5076065;28;20048;-76
2021/12/31 05:14:40;;;;;;;6.20;4.00;;;;;;;;;;5092651;28;20040;-73
2021/12/31 05:17:06;;;;;;;6.88;4.50;;;;;;;;;;5092918;28;20050;-77
2021/12/31 05:19:32;;;;;;;10.52;4.15;;;;;;;;;;5075866;28;20040;-74
2021/12/31 05:21:58;;;;;;;10.02;4.63;;;;;;;;;;5092560;28;20040;-76
2021/12/31 05:24:24;;;;;;;10.98;4.50;;;;;;;;;;5092625;28;20043;-73
2021/12/31 05:26:50;;;;;;;7.47;4.47;;;;;;;;;;5075940;28;20040;-76
2021/12/31 05:29:16;;;;;;;8.15;3.72;;;;;;;;;;5092661;28;20043;-75
2021/12/31 05:31:42;;;;;;;6.55;4.20;;;;;;;;;;5092345;28;20047;-76
2021/12/31 05:34:08;;;;;;;6.47;3.83;;;;;;;;;;5094264;28;20039;-75
2021/12/31 05:36:34;;;;;;;6.00;4.05;;;;;;;;;;5095730;28;20039;-75
2021/12/31 05:39:00;;;;;;;7.20;3.75;;;;;;;;;;5095466;28;20122;-72
2021/12/31 05:41:28;;;;;;;5.28;3.15;;;;;;;;;;5095719;28;20032;-76
2021/12/31 05:43:54;;;;;;;5.85;2.85;;;;;;;;;;5112581;28;20082;-75
2021/12/31 05:46:20;;;;;;;4.72;3.17;;;;;;;;;;5095483;28;20176;-76
2021/12/31 05:48:46;;;;;;;8.35;3.72;;;;;;;;;;5095547;28;20043;-74
2021/12/31 05:51:12;;;;;;;7.45;3.60;;;;;;;;;;5095750;28;20043;-73
2021/12/31 05:53:38;;;;;;;6.70;3.05;;;;;;;;;;5112468;28;20039;-74
2021/12/31 05:56:04;;;;;;;5.30;3.70;;;;;;;;;;5112657;28;20080;-73
2021/12/31 05:58:30;;;;;;;5.70;3.15;;;;;;;;;;5112303;28;20076;-73
2021/12/31 06:00:56;;;;;;;7.97;2.72;;;;;;;;;;5095211;28;20436;-75
2021/12/31 06:03:22;;;;;;;5.80;2.95;;;;;;;;;;5095176;28;20047;-74
2021/12/31 06:05:48;;;;;;;7.15;3.33;;;;;;;;;;5093488;28;20097;-76
2021/12/31 06:08:14;;;;;;;6.60;3.13;;;;;;;;;;5091132;28;20565;-74
2021/12/31 06:10:43;;;;;;;7.03;2.97;;;;;;;;;;5091926;28;20055;-76
2021/12/31 06:13:11;;;;;;;3.70;3.05;;;;;;;;;;5091811;28;20094;-74
2021/12/31 06:15:37;;;;;;;4.85;3.10;;;;;;;;;;5091490;28;20035;-76
2021/12/31 06:18:03;;;;;;;5.75;2.90;;;;;;;;;;5091649;28;20395;-77
2021/12/31 06:20:29;;;;;;;4.72;2.70;;;;;;;;;;5074792;28;20369;-76
2021/12/31 06:22:58;;;;;;;7.13;2.90;;;;;;;;;;5091543;28;20039;-76
2021/12/31 06:25:25;;;;;;;6.80;2.85;;;;;;;;;;5074536;28;20056;-75
2021/12/31 06:27:51;;;;;;;6.20;2.55;;;;;;;;;;5074768;28;20036;-74
2021/12/31 06:30:17;;;;;;;5.90;2.88;;;;;;;;;;5074715;28;20040;-74
2021/12/31 06:32:43;;;;;;;5.40;2.50;;;;;;;;;;5074450;28;20131;-75
2021/12/31 06:35:09;;;;;;;5.88;2.30;;;;;;;;;;5084797;28;20032;-74
2021/12/31 06:37:36;;;;;;;4.97;2.25;;;;;;;;;;5111776;28;20035;-76
2021/12/31 06:40:05;;;;;;;4.40;2.38;;;;;;;;;;5094669;28;20510;-77
2021/12/31 06:42:32;;;;;;;4.57;2.75;;;;;;;;;;5094287;28;20038;-74
2021/12/31 06:44:58;;;;;;;5.65;2.60;;;;;;;;;;5094615;28;20071;-74
2021/12/31 06:47:24;;;;;;;3.03;2.10;;;;;;;;;;5111466;28;20062;-75
2021/12/31 06:49:49;;;;;;;4.82;2.03;;;;;;;;;;5094398;28;20071;-75
2021/12/31 06:52:15;;;;;;;3.70;2.60;;;;;;;;;;5094560;28;20126;-76
2021/12/31 06:54:41;;;;;;;7.55;2.38;;;;;;;;;;5111021;28;20035;-76
2021/12/31 06:57:07;;;;;;;4.10;2.75;;;;;;;;;;5094336;28;20031;-75
2021/12/31 06:59:33;;;;;;;5.85;2.30;;;;;;;;;;5094028;28;20067;-74
2021/12/31 07:01:59;;;;;;;3.53;2.25;;;;;;;;;;5072129;28;20035;-73
2021/12/31 07:04:25;;;;;;;5.63;2.35;;;;;;;;;;5087572;28;20036;-75
2021/12/31 07:06:52;;;;;;;3.92;2.15;;;;;;;;;;5090746;28;20105;-76
2021/12/31 07:09:18;;;;;;;5.47;1.92;;;;;;;;;;5073900;28;20070;-74
2021/12/31 07:11:44;;;;;;;5.72;2.05;;;;;;;;;;5068201;28;20036;-75
2021/12/31 07:14:10;;;;;;;5.50;2.70;;;;;;;;;;5073981;28;20086;-74
2021/12/31 07:16:36;;;;;;;6.25;2.50;;;;;;;;;;5070501;28;20036;-76
2021/12/31 07:19:02;;;;;;;4.55;2.13;;;;;;;;;;5070069;28;20068;-74
2021/12/31 07:21:28;;;;;;;4.78;2.15;;;;;;;;;;5075729;28;20028;-76
2021/12/31 07:23:54;;;;;;;4.38;1.92;;;;;;;;;;5087457;28;20036;-77
2021/12/31 07:26:20;;;;;;;5.03;2.22;;;;;;;;;;5090493;28;20074;-75
2021/12/31 07:28:46;;;;;;;3.72;2.08;;;;;;;;;;5090413;28;20039;-74
2021/12/31 07:31:14;;;;;;;2.80;2.25;;;;;;;;;;5084270;28;20035;-75
2021/12/31 07:33:40;;;;;;;4.22;2.40;;;;;;;;;;5074264;28;20075;-76
2021/12/31 07:36:06;;;;;;;3.95;2.17;;;;;;;;;;5088840;28;20525;-76
2021/12/31 07:38:35;;;;;;;6.88;2.45;;;;;;;;;;5073634;28;20134;-73
2021/12/31 07:41:02;;;;;;;3.83;2.22;;;;;;;;;;5090123;28;20437;-75
2021/12/31 07:43:29;;;;;;;5.60;2.47;;;;;;;;;;5089999;28;20052;-74
2021/12/31 07:45:55;;;;;;;4.55;2.47;;;;;;;;;;5090316;28;20050;-76
2021/12/31 07:48:21;;;;;;;4.70;2.35;;;;;;;;;;5073547;28;20134;-75
2021/12/31 07:50:47;;;;;;;4.25;2.00;;;;;;;;;;5090627;28;20044;-74
2021/12/31 07:53:13;;;;;;;5.57;2.83;;;;;;;;;;5090353;28;20092;-74
2021/12/31 07:55:39;;;;;;;5.75;2.35;;;;;;;;;;5073492;28;20036;-75
2021/12/31 07:58:05;;;;;;;7.35;2.45;;;;;;;;;;5073330;28;20035;-76
2021/12/31 08:00:31;;;;;;;4.03;2.85;;;;;;;;;;5090392;28;20499;-75
2021/12/31 08:02:58;;;;;;;4.80;2.83;;;;;;;;;;5073458;28;20127;-74
2021/12/31 08:05:24;;;;;;;3.05;2.25;;;;;;;;;;5089001;28;20503;-76
2021/12/31 08:07:50;;;;;;;5.28;2.78;;;;;;;;;;5089923;28;20093;-75
2021/12/31 08:10:16;;;;;;;7.55;2.83;;;;;;;;;;5090091;28;20450;-73
2021/12/31 08:12:42;;;;;;;5.13;2.78;;;;;;;;;;5089871;28;20040;-74
2021/12/31 08:15:08;;;;;;;4.38;2.63;;;;;;;;;;5090169;28;20048;-76
2021/12/31 08:17:34;;;;;;;5.90;2.47;;;;;;;;;;5073112;28;20040;-75
2021/12/31 08:20:01;;;;;;;3.80;2.92;;;;;;;;;;5089956;28;20487;-77
2021/12/31 08:22:27;;;;;;;3.65;2.10;;;;;;;;;;5090186;28;20052;-75
2021/12/31 08:24:53;;;;;;;4.95;2.20;;;;;;;;;;5090236;28;20479;-76
2021/12/31 08:27:19;;;;;;;3.22;2.13;;;;;;;;;;5089893;28;20097;-77
2021/12/31 08:29:45;;;;;;;6.28;2.60;;;;;;;;;;5089850;28;20043;-75
2021/12/31 08:32:11;;;;;;;5.97;3.00;;;;;;;;;;5072415;28;20032;-73
2021/12/31 08:34:37;;;;;;;4.97;2.50;;;;;;;;;;5091219;28;20039;-74
2021/12/31 08:37:03;;;;;;;6.82;2.67;;;;;;;;;;5076565;28;20043;-75
2021/12/31 08:39:29;;;;;;;3.67;2.38;;;;;;;;;;5093410;28;20055;-72
2021/12/31 08:41:55;;;;;;;4.20;2.63;;;;;;;;;;5093012;28;20040;-75
2021/12/31 08:44:21;;;;;;;4.30;2.55;;;;;;;;;;5092860;28;20047;-76
2021/12/31 08:46:47;;;;;;;5.93;2.60;;;;;;;;;;5076099;28;20105;-75
2021/12/31 08:49:14;;;;;;;6.72;2.58;;;;;;;;;;5092996;28;20712;-76
2021/12/31 08:51:40;;;;;;;6.63;2.42;;;;;;;;;;5059981;28;20040;-73
2021/12/31 08:54:06;;;;;;;4.88;2.50;;;;;;;;;;5072431;28;20071;-76
2021/12/31 08:56:32;;;;;;;4.90;2.50;;;;;;;;;;5072625;28;20157;-74
2021/12/31 08:58:58;;;;;;;6.00;2.30;;;;;;;;;;5068093;28;20047;-75
2021/12/31 09:01:24;;;;;;;4.15;2.28;;;;;;;;;;5068939;28;20127;-74
2021/12/31 09:03:50;;;;;;;7.68;2.72;;;;;;;;;;5068916;28;20389;-74
2021/12/31 09:06:19;;;;;;;3.17;2.47;;;;;;;;;;5069180;28;20051;-76
2021/12/31 09:08:46;;;;;;;4.28;2.50;;;;;;;;;;5068668;28;20140;-78
2021/12/31 09:11:12;;;;;;;6.53;2.63;;;;;;;;;;5069518;28;20143;-74
2021/12/31 09:13:38;;;;;;;7.18;2.80;;;;;;;;;;5070120;28;20119;-75
2021/12/31 09:16:04;;;;;;;6.70;3.00;;;;;;;;;;5069413;28;20037;-75
2021/12/31 09:18:30;;;;;;;10.65;3.63;;;;;;;;;;5068757;28;20059;-74
2021/12/31 09:20:56;;;;;;;7.45;3.50;;;;;;;;;;5069012;28;20480;-76
2021/12/31 09:23:22;;;;;;;8.95;3.50;;;;;;;;;;5072022;28;20051;-78
2021/12/31 09:25:49;;;;;;;6.10;3.03;;;;;;;;;;5072553;28;20048;-75
2021/12/31 09:28:16;;;;;;;4.07;3.00;;;;;;;;;;5072097;28;20067;-75
2021/12/31 09:30:42;;;;;;;5.00;2.83;;;;;;;;;;5071927;28;20498;-76
2021/12/31 09:33:08;;;;;;;4.93;2.90;;;;;;;;;;5071989;28;20045;-74
2021/12/31 09:35:34;;;;;;;3.65;2.88;;;;;;;;;;5072185;28;20078;-75
2021/12/31 09:38:00;;;;;;;5.00;3.10;;;;;;;;;;5072152;28;20083;-76
2021/12/31 09:40:27;;;;;;;6.28;3.13;;;;;;;;;;5071780;28;20037;-75
2021/12/31 09:43:04;;;;;;;3.70;2.90;;;;;;;;;;5070756;28;20052;-75
2021/12/31 09:45:33;;;;;;;5.63;2.78;;;;;;;;;;5071639;28;20037;-75
2021/12/31 09:48:00;;;;;;;4.05;2.67;;;;;;;;;;5071872;28;20037;-74
2021/12/31 09:50:29;;;;;;;5.50;2.58;;;;;;;;;;5071852;28;20045;-74
2021/12/31 09:52:55;;;;;;;5.60;2.60;;;;;;;;;;5071592;28;20041;-78
2021/12/31 09:55:34;;;;;;;3.67;2.45;;;;;;;;;;5071364;28;20428;-74
2021/12/31 09:58:00;;;;;;;6.88;2.78;;;;;;;;;;5071470;28;20641;-77
2021/12/31 10:00:26;;;;;;;6.10;2.58;;;;;;;;;;5067839;28;20050;-74
2021/12/31 10:03:08;;;;;;;4.13;2.92;;;;;;;;;;5067947;28;20123;-76
2021/12/31 10:05:41;;;;;;;4.60;3.00;;;;;;;;;;5067417;28;20407;-76
2021/12/31 10:08:17;;;;;;;4.82;2.78;;;;;;;;;;5067869;28;20131;-76
2021/12/31 10:10:43;;;;;;;5.78;2.97;;;;;;;;;;5051302;28;20559;-77
2021/12/31 10:13:09;;;;;;;5.78;2.60;;;;;;;;;;5067576;28;20040;-75
2021/12/31 10:15:39;;;;;;;8.35;3.08;;;;;;;;;;5067758;28;20028;-74
2021/12/31 10:18:13;;;;;;;5.13;2.75;;;;;;;;;;5067973;28;20443;-74
2021/12/31 10:20:52;;;;;;;5.53;2.92;;;;;;;;;;5067895;28;20036;-76
2021/12/31 10:23:21;;;;;;;3.47;2.97;;;;;;;;;;5067362;28;20044;-77
2021/12/31 10:25:47;;;;;;;4.72;3.45;;;;;;;;;;5068092;28;20186;-76
2021/12/31 10:28:15;;;;;;;5.75;3.13;;;;;;;;;;5067310;28;20044;-75
2021/12/31 10:30:42;;;;;;;8.85;3.25;;;;;;;;;;5067669;28;20163;-75
2021/12/31 10:33:08;;;;;;;5.03;3.28;;;;;;;;;;5067147;28;20055;-75
2021/12/31 10:35:45;;;;;;;5.38;3.60;;;;;;;;;;5067258;28;20048;-76
2021/12/31 10:38:12;;;;;;;6.13;3.58;;;;;;;;;;5067884;28;20051;-75
2021/12/31 10:40:40;;;;;;;6.50;4.03;;;;;;;;;;5067071;28;20044;-76
2021/12/31 10:43:10;;;;;;;5.13;2.95;;;;;;;;;;5067285;28;20044;-76
2021/12/31 10:45:37;;;;;;;4.97;3.22;;;;;;;;;;5067036;28;20039;-76
2021/12/31 10:48:10;;;;;;;3.95;2.50;;;;;;;;;;5067216;28;20267;-76
2021/12/31 10:50:37;;;;;;;5.55;3.17;;;;;;;;;;5067687;28;20578;-76
2021/12/31 10:53:12;;;;;;;5.07;2.85;;;;;;;;;;5066715;28;20032;-76
2021/12/31 10:55:44;;;;;;;4.93;2.85;;;;;;;;;;5067102;28;20090;-75
2021/12/31 10:58:11;;;;;;;4.57;3.00;;;;;;;;;;5067413;28;20048;-76
2021/12/31 11:00:39;;;;;;;7.30;2.97;;;;;;;;;;5073877;28;20036;-77
2021/12/31 11:03:06;;;;;;;4.90;3.22;;;;;;;;;;5077790;28;20064;-76
2021/12/31 11:05:32;;;;;;;6.35;3.08;;;;;;;;;;5075586;28;20071;-75
2021/12/31 11:08:00;;;;;;;5.65;3.20;;;;;;;;;;5076409;28;20060;-77
2021/12/31 11:10:27;;;;;;;3.67;2.45;;;;;;;;;;5077405;28;20066;-75
2021/12/31 11:12:53;;;;;;;4.68;2.45;;;;;;;;;;5083884;28;20707;-76
2021/12/31 11:15:19;;;;;;;5.20;3.08;;;;;;;;;;5087118;28;20128;-76
2021/12/31 11:17:45;;;;;;;6.22;3.03;;;;;;;;;;5087049;28;20205;-76
2021/12/31 11:20:13;;;;;;;6.68;2.92;;;;;;;;;;5086999;28;20047;-77
2021/12/31 11:22:39;;;;;;;6.45;3.25;;;;;;;;;;5087276;28;20134;-75
2021/12/31 11:25:17;;;;;;;10.13;3.83;;;;;;;;;;5090055;28;20048;-75
2021/12/31 11:27:46;;;;;;;7.57;3.50;;;;;;;;;;5090444;28;20043;-77
2021/12/31 11:30:27;;;;;;;7.65;3.50;;;;;;;;;;5090748;28;20089;-76
2021/12/31 11:32:56;;;;;;;7.13;3.40;;;;;;;;;;5089725;28;20055;-75
2021/12/31 11:35:33;;;;;;;5.63;3.22;;;;;;;;;;5089938;28;20036;-76
2021/12/31 11:38:00;;;;;;;8.25;3.30;;;;;;;;;;5090746;28;20503;-76
2021/12/31 11:40:30;;;;;;;9.88;4.28;;;;;;;;;;5090643;28;20043;-75
2021/12/31 11:43:15;;;;;;;7.03;3.42;;;;;;;;;;5090223;28;20399;-76
2021/12/31 11:45:41;;;;;;;6.75;3.63;;;;;;;;;;5090297;28;20088;-78
2021/12/31 11:48:27;;;;;;;9.10;4.13;;;;;;;;;;5073531;28;20085;-78
2021/12/31 11:51:03;;;;;;;6.97;3.90;;;;;;;;;;5090016;28;20044;-76
2021/12/31 11:53:29;;;;;;;8.93;3.85;;;;;;;;;;5090036;28;20048;-77
2021/12/31 11:55:55;;;;;;;6.35;4.05;;;;;;;;;;5089988;28;20480;-78
2021/12/31 11:58:40;;;;;;;6.90;3.97;;;;;;;;;;5073377;28;20043;-77
2021/12/31 12:01:25;;;;;;;9.27;3.85;;;;;;;;;;5073125;28;20037;-74
2021/12/31 12:04:11;;;;;;;7.75;3.97;;;;;;;;;;5073068;28;20036;-77
2021/12/31 12:06:51;;;;;;;7.25;4.05;;;;;;;;;;5112171;28;20426;-76
2021/12/31 12:09:16;;;;;;;7.97;4.43;;;;;;;;;;5097280;28;20205;-77
2021/12/31 12:12:02;;;;;;;8.55;3.55;;;;;;;;;;5114387;28;20509;-76
2021/12/31 12:14:37;;;;;;;10.23;4.38;;;;;;;;;;5114459;28;20081;-77
2021/12/31 12:17:03;;;;;;;7.20;4.22;;;;;;;;;;5114860;28;20051;-75
2021/12/31 12:19:50;;;;;;;10.27;3.90;;;;;;;;;;5114873;28;20069;-77
2021/12/31 12:22:35;;;;;;;8.70;4.45;;;;;;;;;;5097892;28;20146;-78
2021/12/31 12:25:06;;;;;;;8.15;4.18;;;;;;;;;;5115215;28;20055;-78
2021/12/31 12:27:32;;;;;;;;;;;;;;;;;;5098123;28;20043;-76
2021/12/31 12:30:00;;;;;;;9.20;4.28;;;;;;;;;;5114633;28;20400;-77
2021/12/31 12:32:39;;;;;;;7.80;4.40;;;;;;;;;;5103831;28;20085;-76
2021/12/31 12:35:14;;;;;;;9.25;4.20;;;;;;;;;;5090747;28;20587;-76
2021/12/31 12:37:40;;;;;;;7.70;4.15;;;;;;;;;;5090075;28;20054;-77
2021/12/31 12:40:07;;;;;;;7.63;4.43;;;;;;;;;;5072887;28;20492;-76
2021/12/31 12:42:33;;;;;;;7.60;4.13;;;;;;;;;;5073133;28;20173;-75
2021/12/31 12:45:04;;;;;;;6.35;4.05;;;;;;;;;;5073355;28;20078;-78
2021/12/31 12:47:30;;;;;;;7.65;4.50;;;;;;;;;;5090359;28;20488;-77
2021/12/31 12:49:57;;;;;;;10.43;4.55;;;;;;;;;;5073471;28;20047;-77
2021/12/31 12:52:23;;;;;;;9.13;4.28;;;;;;;;;;5073314;28;20044;-77
2021/12/31 12:54:49;;;;;;;7.25;4.38;;;;;;;;;;5090400;28;20522;-76
2021/12/31 12:57:25;;;;;;;8.93;4.80;;;;;;;;;;5072247;28;20120;-78
2021/12/31 12:59:51;;;;;;;10.43;5.32;;;;;;;;;;5073599;28;20040;-76
2021/12/31 13:02:35;;;;;;;10.45;5.22;;;;;;;;;;5074115;28;20051;-75
2021/12/31 13:05:05;;;;;;;9.57;4.63;;;;;;;;;;5071182;28;20048;-75
2021/12/31 13:07:31;;;;;;;6.20;4.57;;;;;;;;;;5089780;28;20079;-77
2021/12/31 13:10:04;;;;;;;9.23;4.38;;;;;;;;;;5089631;28;20100;-77
2021/12/31 13:12:30;;;;;;;7.53;4.20;;;;;;;;;;5089936;28;20456;-77
2021/12/31 13:14:58;;;;;;;7.30;4.43;;;;;;;;;;5090418;28;20110;-76
2021/12/31 13:17:27;;;;;;;5.93;3.80;;;;;;;;;;5071661;28;20047;-77
2021/12/31 13:20:03;;;;;;;6.55;4.38;;;;;;;;;;5089894;28;20407;-77
2021/12/31 13:22:32;;;;;;;5.15;3.85;;;;;;;;;;5089511;28;20036;-76
2021/12/31 13:24:58;;;;;;;5.40;3.30;;;;;;;;;;5090117;28;20040;-77
2021/12/31 13:27:24;;;;;;;5.43;3.20;;;;;;;;;;5072378;28;20638;-76
2021/12/31 13:30:02;;;;;;;4.22;3.17;;;;;;;;;;5089426;28;20215;-79
2021/12/31 13:32:36;;;;;;;5.50;2.83;;;;;;;;;;5089925;28;20044;-76
2021/12/31 13:35:04;;;;;;;5.30;2.70;;;;;;;;;;5082235;28;20036;-78
2021/12/31 13:37:35;;;;;;;4.70;3.10;;;;;;;;;;5110441;28;20039;-79
2021/12/31 13:40:11;;;;;;;4.53;2.90;;;;;;;;;;5109659;28;20046;-78
2021/12/31 13:42:38;;;;;;;5.13;2.60;;;;;;;;;;5109735;28;20027;-79
2021/12/31 13:45:05;;;;;;;4.55;2.65;;;;;;;;;;5109909;28;20047;-76
2021/12/31 13:47:31;;;;;;;3.85;2.42;;;;;;;;;;5110144;28;20070;-79
2021/12/31 13:50:00;;;;;;;3.70;2.45;;;;;;;;;;5109904;28;20043;-77
2021/12/31 13:52:30;;;;;;;5.93;2.58;;;;;;;;;;5091936;28;20040;-77
2021/12/31 13:54:59;;;;;;;3.97;2.20;;;;;;;;;;5109527;28;20465;-77
2021/12/31 13:57:33;;;;;;;4.85;2.42;;;;;;;;;;5109520;28;20051;-77
2021/12/31 14:00:08;;;;;;;5.95;3.20;;;;;;;;;;5092452;28;20053;-76
2021/12/31 14:02:34;;;;;;;5.43;2.72;;;;;;;;;;5092282;28;20038;-76
2021/12/31 14:05:01;;;;;;;7.10;3.08;;;;;;;;;;5096711;28;20491;-76
2021/12/31 14:07:36;;;;;;;6.45;3.17;;;;;;;;;;5071861;28;20408;-78
2021/12/31 14:10:04;;;;;;;6.65;3.50;;;;;;;;;;5088955;28;20063;-76
2021/12/31 14:12:30;;;;;;;11.60;4.80;;;;;;;;;;5088543;28;20044;-76
2021/12/31 14:14:56;;;;;;;9.27;4.30;;;;;;;;;;5071776;28;20496;-78
2021/12/31 14:17:22;;;;;;;13.77;4.43;;;;;;;;;;5088420;28;20035;-78
2021/12/31 14:19:48;;;;;;;11.27;4.80;;;;;;;;;;5088326;28;20048;-77
2021/12/31 14:22:14;;;;;;;9.85;4.93;;;;;;;;;;5088375;28;20042;-77
2021/12/31 14:24:40;;;;;;;17.30;4.97;;;;;;;;;;5088486;28;20055;-76
2021/12/31 14:27:06;;;;;;;10.55;5.25;;;;;;;;;;5071362;28;20587;-77
2021/12/31 14:29:33;;;;;;;13.55;4.95;;;;;;;;;;5070700;28;20499;-77
2021/12/31 14:32:02;;;;;;;10.35;4.53;;;;;;;;;;5088454;28;20147;-75
2021/12/31 14:34:30;;;;;;;10.77;5.65;;;;;;;;;;5075165;28;20047;-76
2021/12/31 14:36:58;;;;;;;12.07;5.90;;;;;;;;;;5091271;28;20039;-77
2021/12/31 14:39:27;;;;;;;11.70;4.53;;;;;;;;;;5107797;28;20484;-76
2021/12/31 14:41:53;;;;;;;8.77;5.00;;;;;;;;;;5090937;28;20716;-75
2021/12/31 14:44:20;;;;;;;12.65;4.45;;;;;;;;;;5091273;28;20035;-77
2021/12/31 14:46:46;;;;;;;8.38;4.45;;;;;;;;;;5108185;28;20044;-75
2021/12/31 14:49:12;;;;;;;9.23;4.53;;;;;;;;;;5108301;28;20636;-78
2021/12/31 14:51:38;;;;;;;10.60;4.78;;;;;;;;;;5091148;28;20040;-76